Time;durP1;ratioP1;P1;durP2;ratioP2;P2;SDS_P1;SDS_P2;PMS_P1;PMS_P2;Temp;Humidity;BMP_temperature;BMP_pressure;BME280_temperature;BME280_humidity;BME280_pressure;Samples;Min_cycle;Max_cycle;Signal;HPM_P1;HPM_P2
2022/08/27 00:00:48;;;;;;;2.60;2.40;;;;;;;19.10;86.28;97798.38;5030684;28;20449;-85
2022/08/27 00:03:15;;;;;;;4.38;2.90;;;;;;;19.08;86.11;97811.94;5053287;28;20086;-85
2022/08/27 00:05:43;;;;;;;3.22;2.70;;;;;;;19.13;86.38;97811.13;5062387;28;20456;-85
2022/08/27 00:08:11;;;;;;;4.35;3.22;;;;;;;19.07;85.79;97804.19;5038353;28;20708;-86
2022/08/27 00:10:40;;;;;;;3.70;3.40;;;;;;;19.07;85.67;97807.69;5039072;28;20359;-85
2022/08/27 00:13:07;;;;;;;2.85;2.63;;;;;;;19.06;85.91;97803.41;5033986;28;20051;-86
2022/08/27 00:15:34;;;;;;;3.45;3.17;;;;;;;19.00;85.63;97807.09;5068793;28;20619;-86
2022/08/27 00:18:01;;;;;;;3.13;2.50;;;;;;;19.06;85.78;97814.03;5052772;28;20668;-85
2022/08/27 00:20:28;;;;;;;4.05;3.13;;;;;;;19.04;84.61;97807.41;5030450;28;20045;-84
2022/08/27 00:22:54;;;;;;;2.72;2.53;;;;;;;19.12;85.68;97820.97;5070362;28;20480;-85
2022/08/27 00:25:22;;;;;;;2.63;2.38;;;;;;;19.19;85.82;97834.00;5064124;28;20053;-85
2022/08/27 00:27:49;;;;;;;3.03;2.67;;;;;;;19.15;85.57;97832.94;5056644;28;20094;-85
2022/08/27 00:30:19;;;;;;;2.75;2.33;;;;;;;19.19;85.27;97828.69;5057669;28;20682;-85
2022/08/27 00:32:47;;;;;;;2.67;2.47;;;;;;;19.22;85.40;97838.81;5049570;28;20037;-85
2022/08/27 00:35:16;;;;;;;3.75;2.80;;;;;;;19.15;84.83;97838.28;5067535;28;20044;-84
2022/08/27 00:37:43;;;;;;;2.45;2.25;;;;;;;19.19;85.77;97844.63;5046377;28;20485;-85
2022/08/27 00:40:18;;;;;;;2.90;2.60;;;;;;;19.19;85.67;97844.63;5037090;28;20077;-84
2022/08/27 00:42:46;;;;;;;4.22;2.25;;;;;;;19.22;85.82;97836.16;5032758;28;20055;-85
2022/08/27 00:45:19;;;;;;;3.08;2.30;;;;;;;19.22;85.38;97842.28;5029984;28;20400;-85
2022/08/27 00:47:54;;;;;;;1.90;1.80;;;;;;;19.33;85.19;97842.31;5065153;28;20048;-85
2022/08/27 00:50:36;;;;;;;2.80;2.30;;;;;;;19.28;85.63;97843.09;5068738;28;20120;-85
2022/08/27 00:53:18;;;;;;;3.35;2.90;;;;;;;19.22;85.20;97849.44;5054200;28;20124;-85
2022/08/27 00:56:01;;;;;;;3.55;3.03;;;;;;;19.17;85.11;97841.47;5055873;28;20133;-85
2022/08/27 00:58:34;;;;;;;3.08;2.70;;;;;;;19.18;85.77;97845.69;5068735;28;20702;-85
2022/08/27 01:01:01;;;;;;;2.25;2.05;;;;;;;19.22;85.67;97849.44;5051132;28;20046;-85
2022/08/27 01:03:29;;;;;;;2.53;2.33;;;;;;;19.19;85.72;97845.47;5066751;28;20033;-85
2022/08/27 01:06:00;;;;;;;2.53;2.10;;;;;;;19.22;85.69;97846.78;5043851;28;20073;-84
2022/08/27 01:08:33;;;;;;;3.75;2.10;;;;;;;19.24;85.55;97840.13;5041440;28;20547;-85
2022/08/27 01:11:01;;;;;;;2.10;1.92;;;;;;;19.29;85.38;97844.69;5055645;28;20119;-85
2022/08/27 01:13:32;;;;;;;2.35;2.15;;;;;;;19.31;85.08;97839.91;5069576;28;20454;-84
2022/08/27 01:16:31;;;;;;;2.97;2.00;;;;;;;19.37;85.00;97852.16;5065597;28;20087;-85
2022/08/27 01:19:45;;;;;;;2.40;2.20;;;;;;;19.35;84.76;97848.94;5068270;28;20103;-85
2022/08/27 01:22:45;;;;;;;3.00;1.90;;;;;;;19.42;84.74;97828.22;5044540;28;20036;-84
2022/08/27 01:25:16;;;;;;;2.10;1.90;;;;;;;19.44;84.63;97842.06;5051466;28;20125;-84
2022/08/27 01:27:44;;;;;;;2.58;1.73;;;;;;;19.41;84.23;97841.78;5044782;28;20073;-85
2022/08/27 01:30:16;;;;;;;2.75;1.90;;;;;;;19.43;84.25;97855.59;5027875;28;20136;-85
2022/08/27 01:32:44;;;;;;;1.83;1.73;;;;;;;19.40;84.81;97846.31;5039976;28;20052;-85
2022/08/27 01:35:13;;;;;;;2.60;2.40;;;;;;;19.37;84.43;97854.81;5049320;28;20041;-85
2022/08/27 01:37:44;;;;;;;2.45;2.25;;;;;;;19.30;84.55;97854.25;5047989;28;20076;-84
2022/08/27 01:40:15;;;;;;;2.80;1.90;;;;;;;19.31;84.86;97852.38;5031768;28;20080;-85
2022/08/27 01:42:49;;;;;;;2.78;2.00;;;;;;;19.38;84.80;97853.75;5041190;28;20057;-85
2022/08/27 01:45:23;;;;;;;1.88;1.70;;;;;;;19.41;84.46;97863.06;5041196;28;20156;-85
2022/08/27 01:47:50;;;;;;;2.00;1.80;;;;;;;19.38;84.85;97868.91;5041893;28;20132;-85
2022/08/27 01:50:23;;;;;;;2.42;2.22;;;;;;;19.35;84.99;97851.59;5041189;28;20132;-85
2022/08/27 01:52:52;;;;;;;2.28;1.73;;;;;;;19.40;85.13;97864.94;5043964;28;20041;-85
2022/08/27 01:55:24;;;;;;;2.47;2.28;;;;;;;19.34;85.23;97868.63;5054985;28;20405;-85
2022/08/27 01:57:53;;;;;;;2.22;2.03;;;;;;;19.32;84.97;97854.81;5056465;28;20041;-84
2022/08/27 02:00:28;;;;;;;1.58;1.48;;;;;;;19.39;85.23;97855.34;5042965;28;20607;-84
2022/08/27 02:02:58;;;;;;;2.67;1.77;;;;;;;19.42;84.99;97849.50;5040982;28;20106;-84
2022/08/27 02:05:26;;;;;;;2.13;1.92;;;;;;;19.43;84.71;97851.13;5064737;28;20044;-84
2022/08/27 02:07:54;;;;;;;2.10;1.73;;;;;;;19.45;84.30;97853.50;5038543;28;21032;-85
2022/08/27 02:10:30;;;;;;;1.92;1.52;;;;;;;19.46;84.57;97855.91;5052830;28;20714;-85
2022/08/27 02:12:57;;;;;;;2.20;2.00;;;;;;;19.41;84.29;97847.91;5052339;28;20133;-84
2022/08/27 02:15:25;;;;;;;2.10;1.90;;;;;;;19.43;84.37;97843.13;5055066;28;20041;-85
2022/08/27 02:17:51;;;;;;;2.17;1.90;;;;;;;19.42;84.25;97838.84;5068188;28;20708;-85
2022/08/27 02:20:20;;;;;;;2.05;1.83;;;;;;;19.48;84.38;97843.13;5061817;28;20040;-84
2022/08/27 02:22:48;;;;;;;2.20;1.73;;;;;;;19.48;84.47;97847.66;5051799;28;20091;-84
2022/08/27 02:25:18;;;;;;;2.03;1.90;;;;;;;19.50;84.72;97849.00;5052528;28;20048;-84
2022/08/27 02:27:47;;;;;;;1.88;1.60;;;;;;;19.53;84.72;97853.78;5043164;28;20056;-84
2022/08/27 02:30:19;;;;;;;2.35;2.03;;;;;;;19.49;84.70;97844.75;5049633;28;20460;-84
2022/08/27 02:32:46;;;;;;;2.28;2.08;;;;;;;19.53;84.73;97848.47;5061633;28;20074;-84
2022/08/27 02:35:15;;;;;;;2.25;2.05;;;;;;;19.50;84.61;97846.34;5069498;28;20123;-84
2022/08/27 02:37:43;;;;;;;2.30;2.10;;;;;;;19.49;84.94;97844.75;5066208;28;20064;-84
2022/08/27 02:40:16;;;;;;;3.42;3.13;;;;;;;19.41;85.22;97837.25;5041957;28;20041;-84
2022/08/27 02:42:44;;;;;;;3.03;2.65;;;;;;;19.43;85.50;97840.47;5046213;28;20041;-84
2022/08/27 02:45:13;;;;;;;3.25;2.95;;;;;;;19.40;85.45;97842.84;5040689;28;20521;-84
2022/08/27 02:47:40;;;;;;;3.22;2.92;;;;;;;19.32;85.27;97844.16;5055348;28;20068;-84
2022/08/27 02:50:09;;;;;;;3.60;2.67;;;;;;;19.31;85.82;97833.78;5070774;28;20080;-85
2022/08/27 02:52:36;;;;;;;3.92;3.08;;;;;;;19.32;85.89;97824.75;5060867;28;20100;-84
2022/08/27 02:55:05;;;;;;;3.47;2.95;;;;;;;19.31;85.99;97837.25;5071959;28;20748;-85
2022/08/27 02:57:33;;;;;;;4.07;2.85;;;;;;;19.29;85.81;97831.38;5072543;28;20392;-84
2022/08/27 03:00:07;;;;;;;4.20;2.63;;;;;;;19.36;85.38;97833.78;5044618;28;20069;-85
2022/08/27 03:02:35;;;;;;;4.15;3.17;;;;;;;19.25;85.05;97820.50;5039696;28;20167;-86
2022/08/27 03:05:04;;;;;;;3.60;2.97;;;;;;;19.29;85.17;97822.63;5052469;28;20381;-85
2022/08/27 03:07:30;;;;;;;4.93;4.35;;;;;;;19.23;85.39;97819.13;5053987;28;20059;-84
2022/08/27 03:09:57;;;;;;;3.40;3.10;;;;;;;19.20;85.92;97814.38;5068657;28;20063;-84
2022/08/27 03:12:24;;;;;;;3.90;3.50;;;;;;;19.18;85.13;97821.78;5047594;28;20041;-83
2022/08/27 03:14:50;;;;;;;4.70;3.88;;;;;;;19.17;85.15;97814.88;5033734;28;20069;-84
2022/08/27 03:20:23;;;;;;;3.35;2.78;;;;;;;19.23;85.27;97819.13;5051183;28;20494;-84
2022/08/27 03:22:50;;;;;;;3.60;3.25;;;;;;;19.17;85.63;97805.03;5069604;28;20051;-85
2022/08/27 03:25:17;;;;;;;3.53;2.67;;;;;;;19.26;85.60;97808.00;5044234;28;20099;-85
2022/08/27 03:27:44;;;;;;;2.85;2.30;;;;;;;19.27;85.64;97803.47;5030135;28;20512;-85
2022/08/27 03:30:16;;;;;;;2.33;2.13;;;;;;;19.34;85.08;97804.81;5031176;28;20103;-84
2022/08/27 03:32:43;;;;;;;2.20;2.00;;;;;;;19.40;85.23;97801.09;5036612;28;20069;-84
2022/08/27 03:35:11;;;;;;;3.00;2.70;;;;;;;19.35;85.01;97801.09;5051919;28;20134;-84
2022/08/27 03:37:38;;;;;;;3.10;2.15;;;;;;;19.40;85.54;97803.75;5070496;28;20071;-84
2022/08/27 03:40:07;;;;;;;2.20;2.00;;;;;;;19.39;84.58;97799.50;5057868;28;20051;-84
2022/08/27 03:42:35;;;;;;;2.35;2.10;;;;;;;19.45;84.86;97785.16;5037783;28;20653;-85
2022/08/27 03:45:03;;;;;;;2.88;2.45;;;;;;;19.48;84.33;97797.13;5035617;28;20076;-84
2022/08/27 03:47:31;;;;;;;2.92;2.17;;;;;;;19.43;84.19;97789.94;5044740;28;20132;-84
2022/08/27 03:49:59;;;;;;;2.30;2.10;;;;;;;19.49;84.46;97796.88;5062633;28;20036;-84
2022/08/27 03:52:27;;;;;;;2.58;2.30;;;;;;;19.42;84.40;97796.31;5069976;28;20099;-84
2022/08/27 03:54:54;;;;;;;2.63;2.33;;;;;;;19.47;84.70;97793.66;5070162;28;20048;-84
2022/08/27 03:57:21;;;;;;;2.60;2.10;;;;;;;19.49;84.53;97806.69;5043211;28;20386;-83
2022/08/27 03:59:47;;;;;;;2.97;2.65;;;;;;;19.44;84.50;97804.84;5038442;28;20111;-84
2022/08/27 04:02:19;;;;;;;2.83;2.55;;;;;;;19.44;84.97;97804.84;5054212;28;20036;-84
2022/08/27 04:04:46;;;;;;;3.70;2.80;;;;;;;19.40;84.64;97803.75;5069870;28;20051;-84
2022/08/27 04:07:13;;;;;;;4.47;3.70;;;;;;;19.32;85.35;97800.84;5052088;28;20099;-84
2022/08/27 04:09:40;;;;;;;3.40;3.10;;;;;;;19.35;85.13;97811.72;5068669;28;20121;-84
2022/08/27 04:12:06;;;;;;;3.55;3.25;;;;;;;19.27;85.18;97798.97;5065669;28;20481;-83
2022/08/27 04:14:33;;;;;;;5.30;4.18;;;;;;;19.23;84.64;97797.88;5059314;28;20685;-84
2022/08/27 04:17:01;;;;;;;5.32;4.32;;;;;;;19.20;84.93;97803.72;5036882;28;20630;-84
2022/08/27 04:19:41;;;;;;;4.60;3.70;;;;;;;19.19;85.12;97807.44;5069663;28;20072;-83
2022/08/27 04:22:08;;;;;;;4.10;3.67;;;;;;;19.23;85.00;97809.31;5059547;28;20064;-83
2022/08/27 04:24:36;;;;;;;6.43;4.70;;;;;;;19.20;84.85;97803.72;5037844;28;20111;-84
2022/08/27 04:27:04;;;;;;;5.63;4.80;;;;;;;19.17;84.93;97798.91;5056624;28;20228;-84
2022/08/27 04:29:32;;;;;;;4.28;3.75;;;;;;;19.23;85.73;97808.50;5054292;28;20088;-84
2022/08/27 04:32:00;;;;;;;3.78;3.38;;;;;;;19.17;84.82;97812.22;5046207;28;20037;-84
2022/08/27 04:34:26;;;;;;;3.70;3.35;;;;;;;19.25;85.11;97811.69;5050266;28;20484;-82
2022/08/27 04:36:55;;;;;;;4.75;3.72;;;;;;;19.21;84.76;97808.78;5040372;28;20049;-84
2022/08/27 04:39:24;;;;;;;5.10;3.30;;;;;;;19.26;85.19;97808.00;5063253;28;20633;-83
2022/08/27 04:41:54;;;;;;;4.05;3.63;;;;;;;19.23;84.85;97808.50;5053764;28;20149;-84
2022/08/27 04:44:24;;;;;;;6.70;5.68;;;;;;;19.11;84.66;97815.91;5057946;28;20049;-84
2022/08/27 04:46:56;;;;;;;6.25;4.70;;;;;;;19.13;85.45;97816.44;5068487;28;20072;-83
2022/08/27 04:49:25;;;;;;;6.03;4.85;;;;;;;19.12;84.16;97814.84;5068603;28;20044;-84
2022/08/27 04:51:53;;;;;;;4.78;4.05;;;;;;;19.14;84.63;97818.06;5030154;28;20124;-85
2022/08/27 04:54:22;;;;;;;4.20;3.50;;;;;;;19.15;84.57;97827.63;5047458;28;20103;-85
2022/08/27 04:57:02;;;;;;;4.07;3.30;;;;;;;19.20;84.57;97811.72;5047513;28;20049;-85
2022/08/27 04:59:30;;;;;;;;;;;;;;;19.28;84.34;97829.78;5037147;28;20568;-85
2022/08/27 05:01:58;;;;;;;6.00;4.82;;;;;;;19.23;84.08;97822.59;5030069;28;19928;-86
2022/08/27 05:04:25;;;;;;;3.90;3.50;;;;;;;19.27;84.50;97832.72;5028241;28;20045;-85
2022/08/27 05:06:52;;;;;;;3.65;3.30;;;;;;;19.30;84.99;97834.84;5053873;28;20090;-85
2022/08/27 05:09:20;;;;;;;5.43;4.30;;;;;;;19.21;83.94;97837.22;5061037;28;20043;-84
2022/08/27 05:11:50;;;;;;;4.03;3.10;;;;;;;19.22;84.42;97828.97;5067623;28;20128;-84
2022/08/27 05:14:18;;;;;;;4.13;3.65;;;;;;;19.29;84.26;97828.72;5064961;28;20094;-84
2022/08/27 05:16:46;;;;;;;4.45;3.92;;;;;;;19.31;83.68;97834.59;5049505;28;20528;-84
2022/08/27 05:19:32;;;;;;;5.93;4.40;;;;;;;19.27;83.92;97830.84;5050385;28;20054;-84
2022/08/27 05:22:00;;;;;;;4.05;3.38;;;;;;;19.31;84.54;97834.59;5054666;28;20067;-84
2022/08/27 05:24:27;;;;;;;3.20;2.90;;;;;;;19.42;84.54;97830.88;5068633;28;20044;-84
2022/08/27 05:26:53;;;;;;;3.28;2.92;;;;;;;19.39;84.35;97828.75;5059805;28;20045;-84
2022/08/27 05:29:21;;;;;;;4.00;3.15;;;;;;;19.40;84.19;97829.56;5072302;28;20450;-85
2022/08/27 05:31:47;;;;;;;4.03;2.72;;;;;;;19.47;84.41;97832.75;5066941;28;20106;-84
2022/08/27 05:34:15;;;;;;;3.65;3.03;;;;;;;19.47;84.04;97833.56;5038385;28;20689;-85
2022/08/27 05:36:52;;;;;;;4.60;3.92;;;;;;;19.43;83.75;97832.50;5042826;28;20118;-84
2022/08/27 05:39:18;;;;;;;6.22;4.70;;;;;;;19.38;83.63;97835.16;5051832;28;20048;-84
2022/08/27 05:41:45;;;;;;;3.85;3.20;;;;;;;19.41;85.24;97836.47;5053628;28;20045;-85
2022/08/27 05:44:14;;;;;;;3.38;3.08;;;;;;;19.44;84.52;97836.75;5056360;28;20072;-84
2022/08/27 05:47:01;;;;;;;4.13;3.50;;;;;;;19.39;84.87;97836.75;5042079;28;20053;-85
2022/08/27 05:49:28;;;;;;;4.10;3.03;;;;;;;19.44;84.85;97841.28;5039380;28;20115;-84
2022/08/27 05:51:55;;;;;;;3.30;2.88;;;;;;;19.47;84.45;97852.16;5045555;28;20048;-85
2022/08/27 05:54:22;;;;;;;3.85;2.80;;;;;;;19.47;85.17;97841.53;5044865;28;20497;-84
2022/08/27 05:56:49;;;;;;;3.58;2.80;;;;;;;19.50;85.09;97835.69;5045050;28;20044;-84
2022/08/27 06:02:04;;;;;;;3.78;3.30;;;;;;;19.57;84.27;97845.28;5039270;28;20041;-84
2022/08/27 06:04:31;;;;;;;4.22;3.30;;;;;;;19.58;84.41;97841.56;5043039;28;20501;-84
2022/08/27 06:06:58;;;;;;;4.35;3.95;;;;;;;19.52;83.63;97844.22;5049216;28;20080;-83
2022/08/27 06:09:28;;;;;;;4.45;4.00;;;;;;;19.64;83.73;97853.84;5072695;28;20044;-84
2022/08/27 06:11:58;;;;;;;4.30;3.58;;;;;;;19.59;83.54;97846.66;5066527;28;20071;-84
2022/08/27 06:14:26;;;;;;;2.88;2.58;;;;;;;19.58;84.72;97845.06;5057863;28;20481;-84
2022/08/27 06:16:54;;;;;;;3.78;2.83;;;;;;;19.65;83.85;97858.09;5044612;28;20041;-84
2022/08/27 06:19:35;;;;;;;3.63;3.28;;;;;;;19.66;83.54;97843.72;5032795;28;20055;-84
2022/08/27 06:22:02;;;;;;;3.97;3.47;;;;;;;19.68;83.94;97850.41;5038838;28;20064;-84
2022/08/27 06:24:39;;;;;;;4.30;3.28;;;;;;;19.69;83.63;97848.53;5039264;28;20045;-84
2022/08/27 06:27:07;;;;;;;4.10;3.65;;;;;;;19.77;84.36;97862.09;5051209;28;20416;-84
2022/08/27 06:29:34;;;;;;;4.40;3.35;;;;;;;19.83;84.28;97859.44;5043515;28;20042;-85
2022/08/27 06:32:01;;;;;;;5.18;3.33;;;;;;;19.87;83.75;97855.19;5066776;28;20464;-85
2022/08/27 06:34:28;;;;;;;3.90;3.40;;;;;;;19.91;84.65;97850.94;5033050;28;20076;-83
2022/08/27 06:36:54;;;;;;;4.45;3.95;;;;;;;19.91;83.91;97854.41;5063444;28;20152;-85
2022/08/27 06:39:21;;;;;;;3.50;3.20;;;;;;;19.94;83.32;97856.53;5031022;28;20148;-84
2022/08/27 06:41:49;;;;;;;3.88;3.47;;;;;;;19.98;83.42;97852.28;5039160;28;20470;-84
2022/08/27 06:44:16;;;;;;;4.22;3.33;;;;;;;20.11;83.13;97866.13;5071906;28;20040;-84
2022/08/27 06:46:43;;;;;;;4.47;3.47;;;;;;;20.17;82.72;97870.38;5086173;28;20048;-82
2022/08/27 06:49:11;;;;;;;8.23;6.82;;;;;;;19.98;82.46;97868.25;5067801;28;20044;-84
2022/08/27 06:51:43;;;;;;;6.88;6.18;;;;;;;20.02;82.58;97866.63;5066052;28;20071;-85
2022/08/27 06:54:13;;;;;;;4.32;3.72;;;;;;;20.14;83.62;97866.38;5048320;28;20053;-85
2022/08/27 06:56:43;;;;;;;5.67;4.90;;;;;;;20.16;82.89;97866.13;5069457;28;20072;-85
2022/08/27 06:59:14;;;;;;;4.10;3.42;;;;;;;20.34;83.50;97870.91;5072562;28;20040;-84
2022/08/27 07:01:45;;;;;;;6.43;5.00;;;;;;;20.39;82.86;97865.59;5054453;28;20609;-84
2022/08/27 07:04:21;;;;;;;4.28;3.88;;;;;;;20.46;82.13;97866.13;5071909;28;20044;-84
2022/08/27 07:06:56;;;;;;;3.90;3.50;;;;;;;20.62;81.81;97866.09;5070845;28;20044;-84
2022/08/27 07:09:24;;;;;;;6.88;6.03;;;;;;;20.60;80.90;97869.03;5066671;28;20041;-86
2022/08/27 07:11:50;;;;;;;6.10;5.50;;;;;;;20.57;80.65;97872.22;5048049;28;20045;-84
2022/08/27 07:14:17;;;;;;;5.25;4.75;;;;;;;20.63;81.17;97863.16;5032459;28;20425;-84
2022/08/27 07:16:44;;;;;;;5.88;5.20;;;;;;;20.72;81.30;97860.75;5040631;28;20090;-84
2022/08/27 07:19:14;;;;;;;6.28;5.20;;;;;;;20.76;80.74;97872.47;5040905;28;20094;-84
2022/08/27 07:21:42;;;;;;;8.20;7.32;;;;;;;20.56;81.04;97859.97;5072176;28;20049;-84
2022/08/27 07:24:11;;;;;;;5.43;4.93;;;;;;;20.64;81.96;97863.97;5066801;28;20037;-84
2022/08/27 07:26:42;;;;;;;7.80;5.80;;;;;;;20.71;81.34;97870.59;5059292;28;20044;-91
2022/08/27 07:29:24;;;;;;;7.47;6.57;;;;;;;20.61;80.84;97869.81;5051004;28;20502;-88
2022/08/27 07:31:59;;;;;;;7.45;6.03;;;;;;;20.64;81.91;97871.97;5031875;28;20481;-89
2022/08/27 07:34:26;;;;;;;6.93;5.43;;;;;;;20.58;82.04;97876.50;5031281;28;20048;-90
2022/08/27 07:39:45;;;;;;;6.68;5.47;;;;;;;20.66;81.49;97881.28;5064648;28;20452;-90
2022/08/27 07:45:21;;;;;;;6.95;4.60;;;;;;;20.63;82.86;97889.00;5056806;28;20057;-90
2022/08/27 07:48:00;;;;;;;4.82;4.07;;;;;;;20.72;82.90;97888.19;5035773;28;20037;-90
2022/08/27 07:51:07;;;;;;;5.22;4.30;;;;;;;20.68;82.36;97881.00;5039551;28;20049;-91
2022/08/27 07:53:50;;;;;;;6.38;5.57;;;;;;;20.76;81.75;97904.44;5040318;28;20106;-90
2022/08/27 07:56:29;;;;;;;;;;;;;;;;;;;;;
2022/08/27 07:59:42;;;;;;;5.90;4.90;;;;;;;20.69;81.81;97891.41;5040434;28;20123;-91
2022/08/27 08:02:37;;;;;;;10.27;7.47;;;;;;;20.75;81.54;97897.50;5048377;28;20052;-90
2022/08/27 08:05:11;;;;;;;6.18;5.28;;;;;;;20.79;81.89;97893.22;5041912;28;20056;-90
2022/08/27 08:08:10;;;;;;;6.88;5.35;;;;;;;20.78;81.99;97891.63;5055329;28;20569;-90
2022/08/27 08:10:48;;;;;;;5.82;5.07;;;;;;;20.90;81.62;97891.34;5034835;28;20049;-90
2022/08/27 08:13:45;;;;;;;5.78;4.88;;;;;;;20.91;80.95;97891.06;5056717;28;20040;-90
2022/08/27 08:16:52;;;;;;;11.27;8.13;;;;;;;20.97;79.82;97905.19;5058630;28;20367;-91
2022/08/27 08:19:47;;;;;;;7.80;5.93;;;;;;;21.02;80.59;97907.84;5059190;28;20143;-92
2022/08/27 08:22:57;;;;;;;;;;;;;;;;;;;;;
2022/08/27 08:25:42;;;;;;;;;;;;;;;;;;;;;
2022/08/27 08:32:21;;;;;;;;;;;;;;;;;;;;;
2022/08/27 08:35:49;;;;;;;;;;;;;;;;;;;;;
2022/08/27 08:38:55;;;;;;;9.65;8.65;;;;;;;21.57;76.22;97922.03;4897031;29;20061;-90
2022/08/27 08:42:23;;;;;;;;;;;;;;;;;;;;;
2022/08/27 08:49:50;;;;;;;9.27;7.55;;;;;;;21.90;74.94;97931.22;4880207;29;20054;-91
2022/08/27 08:53:17;;;;;;;;;;;;;;;;;;;;;
2022/08/27 08:57:05;;;;;;;;;;;;;;;;;;;;;
2022/08/27 09:08:47;;;;;;;;;;;;;;;;;;;;;
2022/08/27 09:12:31;;;;;;;;;;;;;;;;;;;;;
2022/08/27 09:15:56;;;;;;;;;;;;;;;;;;;;;
2022/08/27 09:19:12;;;;;;;6.55;5.57;;;;;;;21.87;74.06;97931.75;4955650;28;20079;-90
2022/08/27 09:22:23;;;;;;;4.78;4.38;;;;;;;21.87;74.09;97934.41;4976722;28;20068;-90
2022/08/27 09:25:37;;;;;;;4.45;3.97;;;;;;;21.94;76.02;97940.25;4985052;28;20050;-90
2022/08/27 09:32:06;;;;;;;4.53;4.03;;;;;;;22.18;74.05;97935.03;4994954;28;20054;-90
2022/08/27 09:39:12;;;;;;;3.55;3.25;;;;;;;22.43;74.34;97926.00;5019283;28;20582;-90
2022/08/27 09:42:33;;;;;;;;;;;;;;;;;;;;;
2022/08/27 09:45:58;;;;;;;3.78;3.17;;;;;;;22.28;73.31;97934.16;4988798;28;20053;-90
2022/08/27 09:48:57;;;;;;;3.17;2.88;;;;;;;22.35;74.61;97935.44;4990777;28;20113;-91
2022/08/27 09:52:01;;;;;;;;;;;;;;;22.36;73.86;97942.38;5002451;28;20050;-91
2022/08/27 09:54:58;;;;;;;;;;;;;;;;;;;;;
2022/08/27 10:01:56;;;;;;;;;;;;;;;;;;;;;
2022/08/27 10:05:18;;;;;;;3.90;3.60;;;;;;;21.85;74.65;97920.56;4965421;28;20053;-89
2022/08/27 10:08:27;;;;;;;;;;;;;;;;;;;;;
2022/08/27 10:12:04;;;;;;;;;;;;;;;;;;;;;
2022/08/27 10:15:25;;;;;;;3.00;2.70;;;;;;;21.81;75.57;97941.66;4982694;28;20045;-91
2022/08/27 10:18:25;;;;;;;2.92;2.33;;;;;;;21.77;77.07;97929.13;4990280;28;20046;-89
2022/08/27 10:21:33;;;;;;;3.35;2.90;;;;;;;21.67;76.11;97939.88;4991185;28;20050;-89
2022/08/27 10:25:15;;;;;;;;;;;;;;;;;;;;;
2022/08/27 10:29:03;;;;;;;2.53;2.33;;;;;;;21.87;78.89;97935.22;4943217;29;20090;-93
2022/08/27 10:36:40;;;;;;;3.40;3.10;;;;;;;22.41;76.66;97936.19;4806089;29;20054;-91
2022/08/27 10:40:45;;;;;;;;;;;;;;;;;;;;;
2022/08/27 10:44:25;;;;;;;;;;;;;;;;;;;;;
2022/08/27 10:47:24;;;;;;;6.45;4.70;;;;;;;22.39;74.27;97939.16;4816233;29;20054;-87
2022/08/27 10:50:12;;;;;;;4.65;4.15;;;;;;;22.21;74.57;97936.38;4815185;29;20575;-90
2022/08/27 10:52:57;;;;;;;4.20;3.80;;;;;;;22.39;75.67;97933.00;4838718;29;20131;-89
2022/08/27 10:55:40;;;;;;;4.03;3.63;;;;;;;22.48;75.02;97934.00;4922911;29;20048;-90
2022/08/27 11:03:30;;;;;;;;;;;;;;;;;;;;;
2022/08/27 11:07:00;;;;;;;4.82;3.72;;;;;;;23.00;72.66;97935.13;5036228;28;20049;-86
2022/08/27 11:10:44;;;;;;;4.47;3.95;;;;;;;23.04;72.21;97930.81;5053830;28;20053;-87
2022/08/27 11:13:37;;;;;;;3.97;3.67;;;;;;;22.99;70.73;97920.19;5059518;28;20052;-87
2022/08/27 11:16:52;;;;;;;;;;;;;;;;;;;;;
2022/08/27 11:20:30;;;;;;;;;;;;;;;;;;;;;
2022/08/27 11:23:56;;;;;;;4.35;3.95;;;;;;;23.86;68.81;97924.47;5021005;28;20080;-89
2022/08/27 11:26:50;;;;;;;3.97;3.53;;;;;;;23.74;68.38;97922.22;5030657;28;20618;-92
2022/08/27 11:29:35;;;;;;;3.55;3.25;;;;;;;23.61;68.04;97898.81;5038318;28;20057;-94
2022/08/27 11:32:46;;;;;;;;;;;;;;;;;;;;;
2022/08/27 11:36:39;;;;;;;;;;;;;;;;;;;;;
2022/08/27 11:40:19;;;;;;;;;;;;;;;;;;;;;
2022/08/27 11:43:19;;;;;;;;;;;;;;;;;;;;;
2022/08/27 11:47:15;;;;;;;2.55;2.35;;;;;;;23.77;68.41;97894.88;5031495;28;20057;-93
2022/08/27 11:50:29;;;;;;;;;;;;;;;;;;;;;
2022/08/27 11:53:55;;;;;;;2.50;2.30;;;;;;;24.06;68.00;97897.38;4873831;29;20047;-93
2022/08/27 11:57:21;;;;;;;;;;;;;;;;;;;;;
2022/08/27 12:00:34;;;;;;;2.42;2.20;;;;;;;24.14;67.27;97894.03;4877497;29;20576;-92
2022/08/27 12:03:39;;;;;;;2.88;2.65;;;;;;;24.12;68.13;97912.28;4854914;29;20129;-89
2022/08/27 12:07:13;;;;;;;;;;;;;;;;;;;;;
2022/08/27 12:10:50;;;;;;;3.28;3.00;;;;;;;24.29;65.40;97896.47;4906618;29;20066;-93
2022/08/27 12:22:27;;;;;;;3.60;3.30;;;;;;;24.64;63.78;97886.25;4949351;28;20054;-96
2022/08/27 12:26:25;;;;;;;2.83;2.63;;;;;;;25.31;62.33;97878.53;5016249;28;20052;-95
2022/08/27 12:30:15;;;;;;;;;;;;;;;;;;;;;
2022/08/27 12:33:58;;;;;;;;;;;;;;;;;;;;;
2022/08/27 12:37:05;;;;;;;2.55;2.35;;;;;;;26.40;60.24;97883.84;4955886;28;20051;-89
2022/08/27 12:40:27;;;;;;;3.97;3.58;;;;;;;26.00;59.69;97896.38;4935099;29;20060;-94
2022/08/27 12:43:16;;;;;;;3.35;2.50;;;;;;;26.06;61.82;97876.34;4935794;29;20060;-93
2022/08/27 12:47:03;;;;;;;2.83;2.60;;;;;;;26.22;59.79;97874.88;4915192;29;20431;-89
2022/08/27 12:50:00;;;;;;;;;;;;;;;;;;;;;
2022/08/27 12:53:45;;;;;;;;;;;;;;;26.13;60.90;97882.88;5044702;28;20076;-95
2022/08/27 12:57:16;;;;;;;3.47;3.15;;;;;;;25.80;59.80;97876.97;5062591;28;19931;-93
2022/08/27 13:01:00;;;;;;;;;;;;;;;;;;;;;
2022/08/27 13:04:54;;;;;;;3.13;2.75;;;;;;;25.85;59.98;97849.19;5073114;28;20446;-94
2022/08/27 13:08:10;;;;;;;;;;;;;;;;;;;;;
2022/08/27 13:11:55;;;;;;;;;;;;;;;;;;;;;
2022/08/27 13:15:50;;;;;;;;;;;;;;;;;;;;;
2022/08/27 13:23:31;;;;;;;2.80;2.60;;;;;;;25.57;60.07;97875.31;4994085;28;20096;-95
2022/08/27 13:26:09;;;;;;;2.90;2.70;;;;;;;25.31;61.00;97867.81;4913593;29;20048;-90
2022/08/27 13:28:52;;;;;;;2.83;2.63;;;;;;;25.12;61.13;97852.91;4952070;28;20051;-93
2022/08/27 13:31:50;;;;;;;;;;;;;;;;;;;;;
2022/08/27 13:35:31;;;;;;;2.13;1.90;;;;;;;27.38;56.80;97851.31;4974575;28;20046;-94
2022/08/27 13:38:29;;;;;;;2.42;1.90;;;;;;;28.42;51.54;97864.78;4959631;28;20217;-90
2022/08/27 13:42:43;;;;;;;2.05;1.95;;;;;;;28.60;49.04;97856.63;4934384;28;20053;-90
2022/08/27 13:45:39;;;;;;;1.70;1.60;;;;;;;30.16;45.01;97858.38;5034020;28;20509;-95
2022/08/27 13:48:27;;;;;;;2.25;1.90;;;;;;;31.15;42.09;97842.72;5062616;28;20443;-89
2022/08/27 13:51:05;;;;;;;1.55;1.45;;;;;;;31.88;42.62;97830.16;5074223;28;20083;-93
2022/08/27 13:57:51;;;;;;;1.85;1.70;;;;;;;33.20;37.47;97826.09;5035543;28;20171;-92
2022/08/27 14:01:00;;;;;;;;;;;;;;;;;;;;;
2022/08/27 14:05:14;;;;;;;2.10;2.00;;;;;;;33.96;36.47;97831.97;5037685;28;20048;-93
2022/08/27 14:08:39;;;;;;;1.80;1.70;;;;;;;34.49;35.35;97820.50;4950680;28;20801;-94
2022/08/27 14:12:10;;;;;;;;;;;;;;;;;;;;;
2022/08/27 14:15:56;;;;;;;;;;;;;;;;;;;;;
2022/08/27 14:19:50;;;;;;;;;;;;;;;;;;;;;
2022/08/27 14:22:52;;;;;;;2.05;1.95;;;;;;;30.91;42.75;97821.06;4860477;29;20053;-91
2022/08/27 14:26:33;;;;;;;2.08;1.83;;;;;;;30.59;43.64;97820.03;4831271;29;20805;-93
2022/08/27 14:29:36;;;;;;;2.08;1.70;;;;;;;29.70;45.26;97827.78;4821275;29;20050;-91
2022/08/27 14:32:48;;;;;;;1.98;1.88;;;;;;;29.06;46.50;97818.81;4806646;29;20058;-91
2022/08/27 14:35:15;;;;;;;2.00;1.90;;;;;;;28.52;48.16;97821.28;4806704;29;20726;-89
2022/08/27 14:38:17;;;;;;;;;;;;;;;;;;;;;
2022/08/27 14:41:19;;;;;;;1.90;1.80;;;;;;;27.87;50.97;97825.03;4819492;29;20079;-92
2022/08/27 14:43:56;;;;;;;2.05;1.95;;;;;;;27.38;51.09;97821.69;4897308;29;20044;-92
2022/08/27 14:46:56;;;;;;;;;;;;;;;;;;;;;
2022/08/27 14:50:13;;;;;;;;;;;;;;;;;;;;;
2022/08/27 14:53:34;;;;;;;2.30;2.10;;;;;;;26.53;53.75;97829.22;4849416;29;20053;-91
2022/08/27 14:56:43;;;;;;;;;;;;;;;;;;;;;
2022/08/27 15:03:29;;;;;;;;;;;;;;;;;;;;;
2022/08/27 15:06:28;;;;;;;2.47;2.28;;;;;;;25.60;57.08;97826.34;4965287;28;20054;-92
2022/08/27 15:09:33;;;;;;;2.70;2.50;;;;;;;25.39;56.99;97819.88;5052998;28;20501;-93
2022/08/27 15:12:43;;;;;;;2.72;2.53;;;;;;;25.43;56.87;97827.03;4914393;28;20135;-87
2022/08/27 15:16:44;;;;;;;;;;;;;;;;;;;;;
2022/08/27 15:20:09;;;;;;;2.50;2.30;;;;;;;25.58;56.73;97852.72;4887535;29;20064;-92
2022/08/27 15:23:39;;;;;;;2.80;2.53;;;;;;;25.72;56.93;97845.41;4877832;29;20065;-92
2022/08/27 15:26:42;;;;;;;2.58;2.38;;;;;;;26.11;57.89;97835.91;4897665;29;20091;-93
2022/08/27 15:29:47;;;;;;;;;;;;;;;;;;;;;
2022/08/27 15:33:01;;;;;;;;;;;;;;;;;;;;;